Rowe, New Mexico
Current Conditions -  °F | °C
As of 4:53 AM on Saturday 20 Dec 2014 (Local Time) from KSAF Reporting Station
Clear Clear  
Wind Chill: 11°   Ceiling: Unl
Heat Index: 24°   Visibility: 10mi
Dew Point: 17°   Wind: 15mph
Humidity: 75%   Direction: 360°N
Pressure: 30.1"   Gusts: NA
Location:  35.49°N, 105.68°W
Report Text: KSAF 201153Z AUTO 36013KT 10SM CLR M04/M08 A3010 RMK AO2 SLP200 T10441083 11028 21050 58009
Loading
Personal Weather Stations






























Interactive Weather Map New forecast layout! Learn more

10-Day Weather Forecast

Advertisements
Track Severe Weather on mobile